Time;durP1;ratioP1;P1;durP2;ratioP2;P2;SDS_P1;SDS_P2;PMS_P1;PMS_P2;Temp;Humidity;BMP_temperature;BMP_pressure;BME280_temperature;BME280_humidity;BME280_pressure;Samples;Min_cycle;Max_cycle;Signal;HPM_P1;HPM_P2
2022/07/04 00:02:03;;;;;;;4.85;3.20;;;;;;;-148.88;83.16;75608.63;5055606;28;20029;-72
2022/07/04 00:04:28;;;;;;;5.43;3.30;;;;;;;-148.88;83.06;75598.47;5055468;28;20025;-72
2022/07/04 00:06:53;;;;;;;4.32;2.78;;;;;;;-148.88;83.04;75602.53;5055283;28;20024;-73
2022/07/04 00:09:19;;;;;;;4.15;3.03;;;;;;;-148.88;82.89;75604.56;5055272;28;20025;-72
2022/07/04 00:11:44;;;;;;;5.40;3.28;;;;;;;-148.88;83.08;75604.56;5055394;28;20112;-72
2022/07/04 00:14:09;;;;;;;3.63;3.30;;;;;;;-148.88;83.30;75610.66;5070082;22;20053;-76
2022/07/04 00:16:34;;;;;;;4.63;3.28;;;;;;;-148.88;83.59;75610.66;5056920;28;20029;-76
2022/07/04 00:19:00;;;;;;;5.55;3.55;;;;;;;-148.88;83.89;75614.72;5054864;28;20048;-76
2022/07/04 00:21:26;;;;;;;4.40;3.28;;;;;;;-148.88;84.54;75614.72;5055730;28;20028;-76
2022/07/04 00:23:51;;;;;;;4.00;3.20;;;;;;;-148.88;84.38;75614.72;5055667;28;20021;-76
2022/07/04 00:26:17;;;;;;;6.63;3.72;;;;;;;-148.88;84.31;75618.78;5055490;28;20032;-76
2022/07/04 00:28:42;;;;;;;6.10;4.18;;;;;;;-148.88;84.79;75624.88;5055296;28;20086;-76
2022/07/04 00:31:08;;;;;;;6.18;3.92;;;;;;;-148.88;85.15;75620.81;5054176;28;20028;-76
2022/07/04 00:33:33;;;;;;;8.82;4.10;;;;;;;-148.88;85.26;75626.91;5055380;28;20043;-76
2022/07/04 00:35:58;;;;;;;5.88;3.92;;;;;;;-148.88;85.46;75628.94;5054025;28;20509;-76
2022/07/04 00:38:24;;;;;;;6.70;4.25;;;;;;;-148.88;85.61;75630.97;5055282;28;20029;-76
2022/07/04 00:40:49;;;;;;;5.78;4.25;;;;;;;-148.88;85.29;75635.03;5054603;28;20397;-76
2022/07/04 00:43:24;;;;;;;6.70;4.03;;;;;;;-148.88;85.55;75630.97;5055346;28;20487;-76
2022/07/04 00:45:50;;;;;;;4.60;3.65;;;;;;;-148.88;86.95;75649.25;5055212;28;20032;-76
2022/07/04 00:48:15;;;;;;;5.88;4.20;;;;;;;-148.88;87.05;75651.28;5055215;28;20033;-76
2022/07/04 00:50:43;;;;;;;5.47;3.70;;;;;;;-148.88;86.52;75645.19;5055541;28;20021;-76
2022/07/04 00:53:08;;;;;;;7.38;4.18;;;;;;;-148.88;86.72;75647.22;5056482;28;20022;-76
2022/07/04 00:55:34;;;;;;;5.65;3.90;;;;;;;-148.88;86.50;75645.19;5055873;28;20025;-76
2022/07/04 00:57:59;;;;;;;6.60;3.97;;;;;;;-148.88;86.87;75651.28;5055229;28;20407;-76
2022/07/04 01:00:25;;;;;;;5.55;4.20;;;;;;;-148.88;87.30;75659.41;5054875;28;20037;-77
2022/07/04 01:02:50;;;;;;;5.40;3.63;;;;;;;-148.88;87.70;75667.53;5054814;28;20028;-76
2022/07/04 01:05:16;;;;;;;5.80;3.72;;;;;;;-148.88;87.23;75667.53;5053477;28;20052;-76
2022/07/04 01:07:42;;;;;;;6.10;3.53;;;;;;;-148.88;87.46;75655.34;5054831;28;20077;-76
2022/07/04 01:10:08;;;;;;;4.93;3.83;;;;;;;-148.88;87.79;75667.53;5054624;28;20151;-76
2022/07/04 01:12:34;;;;;;;6.53;4.00;;;;;;;-148.88;88.19;75677.69;5054378;28;20499;-76
2022/07/04 01:15:00;;;;;;;5.18;3.78;;;;;;;-148.88;88.53;75685.81;5053334;28;20029;-76
2022/07/04 01:17:25;;;;;;;4.68;3.80;;;;;;;-148.88;89.07;75691.91;5054608;28;20032;-76
2022/07/04 01:19:51;;;;;;;6.07;3.97;;;;;;;-148.88;88.65;75687.84;5053091;28;20094;-76
2022/07/04 01:22:16;;;;;;;6.28;4.07;;;;;;;-148.88;89.63;75702.06;5053208;28;20112;-76
2022/07/04 01:24:41;;;;;;;4.90;3.88;;;;;;;-148.88;90.00;75704.09;5054092;28;20025;-76
2022/07/04 01:27:07;;;;;;;6.22;4.63;;;;;;;-148.88;91.14;75722.38;5053734;28;20104;-76
2022/07/04 01:29:32;;;;;;;6.32;4.72;;;;;;;-148.88;91.30;75724.41;5054243;28;20478;-76
2022/07/04 01:32:04;;;;;;;6.82;4.43;;;;;;;-148.88;90.81;75716.28;5054656;28;20039;-76
2022/07/04 01:34:29;;;;;;;6.47;4.55;;;;;;;-148.88;90.58;75712.22;5053289;28;20481;-76
2022/07/04 01:36:54;;;;;;;5.68;4.15;;;;;;;-148.88;89.97;75706.13;5054534;28;20482;-76
2022/07/04 01:39:20;;;;;;;4.95;4.00;;;;;;;-148.88;90.26;75712.22;5052816;28;20021;-76
2022/07/04 01:41:45;;;;;;;6.35;4.25;;;;;;;-148.88;90.19;75708.16;5054187;28;20025;-76
2022/07/04 01:44:10;;;;;;;5.65;4.45;;;;;;;-148.88;89.90;75718.31;5052714;28;20028;-76
2022/07/04 01:46:35;;;;;;;5.97;4.38;;;;;;;-148.88;91.03;75736.59;5052705;28;20036;-77
2022/07/04 01:49:01;;;;;;;8.00;5.25;;;;;;;-148.88;92.14;75738.63;5053756;28;20032;-76
2022/07/04 01:51:26;;;;;;;6.18;4.88;;;;;;;-148.88;92.36;75750.81;5054141;28;20017;-76
2022/07/04 01:53:51;;;;;;;6.30;4.38;;;;;;;-148.88;92.76;75744.72;5052560;28;20107;-76
2022/07/04 01:56:17;;;;;;;7.45;4.63;;;;;;;-148.88;91.89;75744.72;5053776;28;20474;-76
2022/07/04 01:58:42;;;;;;;5.97;4.18;;;;;;;-148.88;91.44;75728.47;5052460;28;20025;-76
2022/07/04 02:03:51;;;;;;;5.43;3.63;;;;;;;-148.88;90.65;75732.53;5053938;28;20090;-76
2022/07/04 02:06:17;;;;;;;6.63;4.20;;;;;;;-148.88;90.51;75734.56;5053765;28;20021;-76
2022/07/04 02:11:26;;;;;;;5.82;4.18;;;;;;;-148.88;90.16;75744.72;5053841;28;20083;-76
2022/07/04 02:13:51;;;;;;;5.70;4.22;;;;;;;-148.88;90.51;75744.72;5053374;28;20083;-76
2022/07/04 02:16:17;;;;;;;5.05;4.53;;;;;;;-148.88;90.25;75752.84;5052341;28;20032;-76
2022/07/04 02:18:42;;;;;;;5.03;3.97;;;;;;;-148.88;90.10;75763.00;5053502;28;20560;-76
2022/07/04 02:21:07;;;;;;;5.50;4.20;;;;;;;-148.88;90.23;75773.16;5053694;28;20024;-76
2022/07/04 02:23:32;;;;;;;8.40;5.20;;;;;;;-148.88;91.22;75779.25;5053347;28;20032;-76
2022/07/04 02:25:58;;;;;;;7.18;4.40;;;;;;;-148.88;91.83;75781.28;5052064;28;20120;-76
2022/07/04 02:28:23;;;;;;;7.30;4.60;;;;;;;-148.88;91.88;75785.34;5051885;28;20037;-76
2022/07/04 02:30:48;;;;;;;6.35;4.70;;;;;;;-148.88;91.90;75789.41;5052731;28;20033;-76
2022/07/04 02:33:14;;;;;;;7.15;5.13;;;;;;;-148.88;91.96;75789.41;5051952;28;20102;-76
2022/07/04 02:35:39;;;;;;;6.85;4.55;;;;;;;-148.88;92.26;75801.59;5053677;28;20031;-76
2022/07/04 02:38:04;;;;;;;5.68;4.53;;;;;;;-148.88;92.45;75807.69;5053248;28;20017;-76
2022/07/04 02:40:29;;;;;;;6.35;5.47;;;;;;;-148.88;92.83;75811.75;5051813;28;20036;-76
2022/07/04 02:42:55;;;;;;;6.75;5.28;;;;;;;-148.88;93.03;75817.84;5053055;28;20079;-76
2022/07/04 02:45:20;;;;;;;6.60;5.22;;;;;;;-148.88;93.61;75817.84;5052027;28;20021;-76
2022/07/04 02:47:45;;;;;;;5.38;4.88;;;;;;;-148.88;93.44;75834.09;5051993;28;20102;-76
2022/07/04 02:50:10;;;;;;;7.70;5.15;;;;;;;-148.88;93.62;75836.13;5053030;28;20025;-76
2022/07/04 02:52:36;;;;;;;5.53;4.97;;;;;;;-148.88;93.81;75838.16;5053353;28;20463;-76
2022/07/04 02:55:01;;;;;;;5.60;5.00;;;;;;;-148.88;93.45;75838.16;5052999;28;20017;-76
2022/07/04 02:57:27;;;;;;;7.65;4.75;;;;;;;-148.88;93.10;75844.25;5053090;28;20029;-76
2022/07/04 02:59:52;;;;;;;6.50;4.90;;;;;;;-148.88;93.50;75854.41;5051585;28;20021;-76
2022/07/04 03:02:17;;;;;;;7.22;5.30;;;;;;;-148.88;93.96;75870.66;5052896;28;20021;-76
2022/07/04 03:04:43;;;;;;;6.22;5.30;;;;;;;-148.88;94.28;75870.66;5052904;28;20382;-76
2022/07/04 03:07:08;;;;;;;7.45;5.25;;;;;;;-148.88;94.85;75880.81;5051648;28;20025;-76
2022/07/04 03:09:33;;;;;;;7.63;5.38;;;;;;;-148.88;94.77;75876.75;5052761;28;20460;-76
2022/07/04 03:11:59;;;;;;;5.88;4.80;;;;;;;-148.88;94.78;75884.88;5052334;28;20025;-77
2022/07/04 03:14:24;;;;;;;7.18;5.15;;;;;;;-148.88;95.05;75878.78;5051739;28;20021;-77
2022/07/04 03:16:50;;;;;;;7.90;5.18;;;;;;;-148.88;95.23;75888.94;5051878;28;20432;-77
2022/07/04 03:19:17;;;;;;;6.95;6.10;;;;;;;-148.88;95.43;75878.78;5052792;28;20485;-77
2022/07/04 03:21:42;;;;;;;7.15;5.40;;;;;;;-148.88;95.12;75884.88;5052834;28;20075;-77
2022/07/04 03:24:09;;;;;;;6.80;5.20;;;;;;;-148.88;95.56;75893.00;5051753;28;20025;-76
2022/07/04 03:26:34;;;;;;;7.63;5.30;;;;;;;-148.88;95.54;75895.03;5053044;28;20020;-77
2022/07/04 03:29:00;;;;;;;9.77;5.00;;;;;;;-148.88;95.96;75893.00;5053264;28;20390;-76
2022/07/04 03:31:28;;;;;;;7.18;5.20;;;;;;;-148.88;95.62;75903.16;5051438;28;20028;-75
2022/07/04 03:33:53;;;;;;;6.68;5.82;;;;;;;-148.88;96.43;75901.13;5052617;28;20029;-75
2022/07/04 03:36:19;;;;;;;8.18;5.32;;;;;;;-148.88;96.18;75907.22;5052720;28;20036;-75
2022/07/04 03:38:45;;;;;;;6.78;5.05;;;;;;;-148.88;96.13;75903.16;5052480;28;20025;-75
2022/07/04 03:41:11;;;;;;;7.53;5.25;;;;;;;-148.88;96.27;75911.28;5052879;28;20381;-75
2022/07/04 03:43:36;;;;;;;6.82;5.45;;;;;;;-148.88;96.64;75907.22;5056107;28;20489;-75
2022/07/04 03:46:02;;;;;;;7.07;5.53;;;;;;;-148.88;96.45;75907.22;5056273;28;20029;-74
2022/07/04 03:48:28;;;;;;;8.95;6.53;;;;;;;-148.88;96.83;75911.28;5054801;28;20032;-74
2022/07/04 03:50:53;;;;;;;8.63;6.72;;;;;;;-148.88;97.15;75911.28;5054945;28;20025;-74
2022/07/04 03:53:19;;;;;;;10.05;6.35;;;;;;;-148.88;97.47;75911.28;5054805;28;20147;-74
2022/07/04 03:55:45;;;;;;;7.15;6.45;;;;;;;-148.88;97.71;75911.28;5056367;28;20021;-74
2022/07/04 03:58:11;;;;;;;10.40;6.03;;;;;;;-148.88;98.01;75911.28;5055982;28;20049;-74
2022/07/04 04:00:36;;;;;;;7.85;5.85;;;;;;;-148.88;98.12;75913.31;5055940;28;20106;-75
2022/07/04 04:03:01;;;;;;;7.90;6.80;;;;;;;-148.88;98.09;75917.38;5055128;28;20063;-74
2022/07/04 04:05:27;;;;;;;8.98;6.85;;;;;;;-148.88;98.29;75921.44;5054813;28;20059;-74
2022/07/04 04:07:54;;;;;;;9.43;6.90;;;;;;;-148.88;98.50;75911.28;5055893;28;20398;-74
2022/07/04 04:10:19;;;;;;;9.65;7.28;;;;;;;-148.88;98.94;75911.28;5054482;28;20540;-74
2022/07/04 04:12:45;;;;;;;8.88;6.93;;;;;;;-148.88;99.32;75915.34;5055689;28;20056;-74
2022/07/04 04:15:10;;;;;;;10.50;7.32;;;;;;;-148.88;99.39;75913.31;5055815;28;20103;-74
2022/07/04 04:17:35;;;;;;;11.40;7.35;;;;;;;-148.88;99.38;75911.28;5054320;28;20024;-74
2022/07/04 04:20:01;;;;;;;9.20;7.05;;;;;;;-148.88;99.25;75911.28;5054239;28;20017;-74
2022/07/04 04:22:29;;;;;;;10.27;7.82;;;;;;;-148.88;99.65;75911.28;5055536;28;20020;-74
2022/07/04 04:24:55;;;;;;;9.18;7.43;;;;;;;-148.88;99.48;75909.25;5054271;28;20021;-74
2022/07/04 04:27:20;;;;;;;10.40;7.68;;;;;;;-148.88;99.05;75895.03;5055406;28;20112;-75
2022/07/04 04:29:46;;;;;;;10.73;6.97;;;;;;;-148.88;99.11;75901.13;5054087;28;20028;-76
2022/07/04 04:32:11;;;;;;;10.75;8.18;;;;;;;-148.88;100.00;75909.25;5055823;28;20024;-76
2022/07/04 04:34:37;;;;;;;12.57;8.40;;;;;;;-148.88;100.00;75907.22;5054082;28;20055;-76
2022/07/04 04:37:03;;;;;;;10.32;8.45;;;;;;;-148.88;100.00;75907.22;5055396;28;20024;-75
2022/07/04 04:39:28;;;;;;;10.77;8.60;;;;;;;-148.88;100.00;75907.22;5054308;28;20013;-74
2022/07/04 04:41:54;;;;;;;12.73;7.75;;;;;;;-148.88;100.00;75903.16;5053982;28;20078;-74
2022/07/04 04:44:19;;;;;;;9.95;7.85;;;;;;;-148.88;100.00;75895.03;5055160;28;20020;-74
2022/07/04 04:46:45;;;;;;;13.48;8.38;;;;;;;-148.88;100.00;75886.91;5055150;28;20017;-74
2022/07/04 04:49:11;;;;;;;11.13;8.68;;;;;;;-148.88;100.00;75882.84;5054906;28;20102;-75
2022/07/04 04:51:36;;;;;;;12.65;8.40;;;;;;;-148.88;100.00;75874.72;5055011;28;20024;-76
2022/07/04 04:54:02;;;;;;;9.77;8.40;;;;;;;-148.88;100.00;75862.53;5054424;28;20025;-75
2022/07/04 04:56:27;;;;;;;11.75;8.65;;;;;;;-148.88;100.00;75858.47;5054890;28;20390;-75
2022/07/04 04:58:52;;;;;;;12.13;8.07;;;;;;;-148.88;100.00;75854.41;5053587;28;20028;-75
2022/07/04 05:01:18;;;;;;;12.23;8.80;;;;;;;-148.88;100.00;75860.50;5055370;28;20024;-75
2022/07/04 05:03:43;;;;;;;12.68;8.68;;;;;;;-148.88;100.00;75850.34;5054837;28;20435;-75
2022/07/04 05:06:09;;;;;;;11.10;9.10;;;;;;;-148.88;100.00;75844.25;5055288;28;20021;-75
2022/07/04 05:08:34;;;;;;;11.02;8.50;;;;;;;-148.88;100.00;75828.00;5054550;28;20029;-75
2022/07/04 05:11:00;;;;;;;12.80;9.23;;;;;;;-148.88;100.00;75834.09;5054885;28;20355;-75
2022/07/04 05:13:25;;;;;;;11.05;8.50;;;;;;;-148.88;100.00;75821.91;5053238;28;20029;-75
2022/07/04 05:15:51;;;;;;;13.52;9.10;;;;;;;-148.88;100.00;75815.81;5054853;28;20052;-75
2022/07/04 05:18:16;;;;;;;11.27;8.95;;;;;;;-148.88;100.00;75811.75;5053460;28;20469;-75
2022/07/04 05:20:42;;;;;;;12.65;9.52;;;;;;;-148.88;100.00;75811.75;5054442;28;20021;-75
2022/07/04 05:23:08;;;;;;;11.55;9.32;;;;;;;-148.88;100.00;75809.72;5054377;28;20032;-75
2022/07/04 05:25:33;;;;;;;12.30;9.82;;;;;;;-148.88;100.00;75807.69;5054382;28;20446;-75
2022/07/04 05:27:59;;;;;;;12.48;9.07;;;;;;;-148.88;100.00;75807.69;5054319;28;20021;-75
2022/07/04 05:30:24;;;;;;;14.88;9.68;;;;;;;-148.88;100.00;75807.69;5052976;28;20032;-75
2022/07/04 05:32:50;;;;;;;12.10;9.30;;;;;;;-148.88;100.00;75793.47;5054138;28;20485;-75
2022/07/04 05:35:15;;;;;;;12.55;9.77;;;;;;;-148.88;100.00;75789.41;5054143;28;20486;-75
2022/07/04 05:37:41;;;;;;;12.63;9.13;;;;;;;-148.88;100.00;75775.19;5054076;28;20074;-75
2022/07/04 05:40:06;;;;;;;13.70;9.75;;;;;;;-148.88;100.00;75781.28;5054039;28;20029;-75
2022/07/04 05:42:34;;;;;;;13.77;9.45;;;;;;;-148.88;100.00;75785.34;5054016;28;20025;-75
2022/07/04 05:44:59;;;;;;;13.75;10.48;;;;;;;-148.88;100.00;75781.28;5052683;28;20029;-75
2022/07/04 05:47:24;;;;;;;11.55;9.68;;;;;;;-148.88;100.00;75769.09;5053868;28;20033;-75
2022/07/04 05:49:50;;;;;;;13.02;9.50;;;;;;;-148.88;100.00;75765.03;5052581;28;20027;-76
2022/07/04 05:52:15;;;;;;;11.55;8.95;;;;;;;-148.88;100.00;75763.00;5053893;28;20052;-75
2022/07/04 05:54:41;;;;;;;18.92;9.27;;;;;;;-148.88;100.00;75752.84;5054019;28;20029;-75
2022/07/04 05:57:06;;;;;;;13.80;9.63;;;;;;;-148.88;99.81;75744.72;5052629;28;20509;-75
2022/07/04 05:59:32;;;;;;;10.75;8.50;;;;;;;-148.88;99.31;75738.63;5052531;28;20055;-75
2022/07/04 06:01:57;;;;;;;13.15;9.02;;;;;;;-148.88;98.87;75740.66;5053716;28;20108;-75
2022/07/04 06:04:22;;;;;;;10.40;6.57;;;;;;;-148.88;96.92;75740.66;5052378;28;20037;-76
2022/07/04 06:06:47;;;;;;;8.93;5.65;;;;;;;-148.88;96.30;75746.75;5051493;28;20032;-75
2022/07/04 06:09:13;;;;;;;11.00;6.28;;;;;;;-148.88;97.21;75730.50;5053439;28;20021;-75
2022/07/04 06:11:38;;;;;;;8.50;6.00;;;;;;;-148.88;96.36;75716.28;5053520;28;20025;-75
2022/07/04 06:14:03;;;;;;;6.38;5.47;;;;;;;-148.88;95.60;75714.25;5053021;22;20555;-74
2022/07/04 06:16:29;;;;;;;10.15;6.93;;;;;;;-148.88;95.85;75708.16;5052848;28;20029;-73
2022/07/04 06:18:54;;;;;;;9.75;6.97;;;;;;;-148.88;96.22;75700.03;5052911;28;20371;-73
2022/07/04 06:21:19;;;;;;;8.68;4.93;;;;;;;-148.88;94.04;75695.97;5053126;28;20025;-75
2022/07/04 06:23:45;;;;;;;10.48;6.05;;;;;;;-148.88;95.12;75689.88;5052713;28;20028;-73
2022/07/04 06:26:10;;;;;;;10.98;6.20;;;;;;;-148.88;94.90;75681.75;5052748;28;20036;-74
2022/07/04 06:28:35;;;;;;;8.15;5.97;;;;;;;-148.88;93.75;75669.56;5052526;28;20035;-74
2022/07/04 06:31:01;;;;;;;7.18;5.32;;;;;;;-148.88;92.44;75655.34;5052627;28;20492;-74
2022/07/04 06:33:26;;;;;;;8.43;5.60;;;;;;;-148.88;91.61;75655.34;5052638;28;20043;-73
2022/07/04 06:35:54;;;;;;;6.57;5.10;;;;;;;-148.88;90.22;75651.28;5052568;28;20056;-73
2022/07/04 06:38:27;;;;;;;8.07;5.13;;;;;;;-148.88;90.29;75639.09;5052648;28;20029;-74
2022/07/04 06:40:55;;;;;;;5.70;3.58;;;;;;;-148.88;86.23;75630.97;5052702;28;20055;-73
2022/07/04 06:43:21;;;;;;;5.80;4.38;;;;;;;-148.88;86.29;75626.91;5052377;28;20057;-73
2022/07/04 06:45:46;;;;;;;6.43;4.20;;;;;;;-148.88;87.11;75610.66;5034426;28;20075;-74
2022/07/04 06:48:12;;;;;;;7.05;4.43;;;;;;;-148.88;87.45;75596.44;5034324;28;20021;-74
2022/07/04 06:50:37;;;;;;;5.93;4.68;;;;;;;-148.88;86.98;75606.59;5052299;28;20075;-74
2022/07/04 06:53:04;;;;;;;7.20;4.25;;;;;;;-148.88;85.27;75594.44;5052797;28;20031;-73
2022/07/04 06:55:30;;;;;;;5.13;3.45;;;;;;;-148.88;81.82;75590.34;5052295;28;20021;-74
2022/07/04 06:57:55;;;;;;;6.95;3.60;;;;;;;-148.88;82.89;75594.44;5052634;28;20043;-74
2022/07/04 07:00:20;;;;;;;5.75;3.90;;;;;;;-148.88;83.45;75590.34;5052620;28;20033;-74
2022/07/04 07:02:46;;;;;;;7.25;4.35;;;;;;;-148.88;81.94;75570.03;5052336;28;20047;-74
2022/07/04 07:05:11;;;;;;;6.93;4.10;;;;;;;-148.88;82.66;75570.03;5052644;28;20143;-73
2022/07/04 07:07:36;;;;;;;5.80;2.67;;;;;;;-148.88;78.39;75537.56;5052612;28;20535;-73
2022/07/04 07:10:02;;;;;;;7.25;2.80;;;;;;;-148.88;77.46;75531.47;5052294;28;20028;-74
2022/07/04 07:12:29;;;;;;;5.63;3.50;;;;;;;-148.88;78.57;75529.44;5052024;28;20025;-73
2022/07/04 07:14:54;;;;;;;6.05;3.22;;;;;;;-148.88;78.28;75521.31;5052578;28;20086;-74
2022/07/04 07:17:20;;;;;;;4.38;2.70;;;;;;;-148.88;77.71;75509.13;5053857;28;20111;-74
2022/07/04 07:19:45;;;;;;;4.10;2.40;;;;;;;-148.88;77.25;75488.81;5056380;28;20088;-73
2022/07/04 07:22:12;;;;;;;3.35;1.92;;;;;;;-148.88;72.52;75460.38;5056175;28;20020;-74
2022/07/04 07:24:37;;;;;;;3.15;1.13;;;;;;;-148.88;68.66;75464.44;5056413;28;20025;-74
2022/07/04 07:27:02;;;;;;;6.20;1.40;;;;;;;-148.88;65.82;75484.75;5056319;28;20035;-73
2022/07/04 07:29:28;;;;;;;3.55;1.30;;;;;;;-148.88;65.76;75490.84;5056283;28;20103;-73
2022/07/04 07:31:54;;;;;;;4.47;1.40;;;;;;;-148.88;67.23;75472.56;5056686;28;20025;-73
2022/07/04 07:34:19;;;;;;;5.53;1.10;;;;;;;-148.88;65.61;75466.47;5056282;28;20421;-73
2022/07/04 07:36:44;;;;;;;2.33;0.90;;;;;;;-148.88;63.03;75444.13;5056319;28;20017;-73
2022/07/04 07:39:09;;;;;;;2.83;1.20;;;;;;;-148.88;64.08;75440.06;5056107;28;20033;-74
2022/07/04 07:41:35;;;;;;;5.25;1.30;;;;;;;-148.88;65.94;75421.78;5055892;28;20025;-73
2022/07/04 07:44:00;;;;;;;2.78;1.20;;;;;;;-148.88;65.08;75405.53;5055887;28;20056;-73
2022/07/04 07:46:26;;;;;;;2.38;1.25;;;;;;;-148.88;64.60;75415.69;5055777;28;20047;-73
2022/07/04 07:48:51;;;;;;;3.05;1.48;;;;;;;-148.88;64.39;75405.53;5055599;28;20029;-73
2022/07/04 07:51:16;;;;;;;2.67;1.20;;;;;;;-148.88;64.58;75413.66;5037621;28;20027;-73
2022/07/04 07:53:42;;;;;;;2.58;1.20;;;;;;;-148.88;65.43;75401.47;5055615;28;20491;-73
2022/07/04 07:56:08;;;;;;;2.92;1.42;;;;;;;-148.88;65.32;75375.06;5055505;28;20070;-73
2022/07/04 07:58:33;;;;;;;4.18;1.60;;;;;;;-148.88;61.21;75366.94;5055414;28;20021;-73
2022/07/04 08:01:01;;;;;;;5.03;1.90;;;;;;;-148.88;61.71;75383.19;5055392;28;20048;-73
2022/07/04 08:06:12;;;;;;;3.95;1.50;;;;;;;-148.88;64.23;75362.88;5055791;28;20067;-74
2022/07/04 08:08:37;;;;;;;3.55;1.50;;;;;;;-148.88;63.81;75330.38;5055078;28;20021;-73
2022/07/04 08:11:03;;;;;;;3.80;1.58;;;;;;;-148.88;61.30;75352.72;5055413;28;20393;-73
2022/07/04 08:13:29;;;;;;;3.45;1.40;;;;;;;-148.88;61.82;75356.78;5054970;28;20116;-73
2022/07/04 08:15:54;;;;;;;2.90;1.30;;;;;;;-148.88;61.59;75334.44;5055062;28;20049;-73
2022/07/04 08:18:19;;;;;;;5.65;1.10;;;;;;;-148.88;60.66;75318.19;5037018;28;20025;-73
2022/07/04 08:20:44;;;;;;;3.25;1.30;;;;;;;-148.88;61.34;75306.00;5055107;28;20444;-73
2022/07/04 08:23:10;;;;;;;3.58;1.38;;;;;;;-148.88;60.50;75297.88;5054976;28;20024;-73
2022/07/04 08:25:35;;;;;;;2.88;1.20;;;;;;;-148.88;59.34;75297.88;5054847;28;20025;-73
2022/07/04 08:28:01;;;;;;;4.05;1.45;;;;;;;-148.88;58.77;75289.75;5054237;28;20025;-73
2022/07/04 08:30:26;;;;;;;3.40;1.25;;;;;;;-148.88;58.47;75314.13;5054222;28;20035;-73
2022/07/04 08:32:51;;;;;;;3.55;1.50;;;;;;;-148.88;58.95;75275.56;5054905;28;20044;-74
2022/07/04 08:35:16;;;;;;;4.40;1.20;;;;;;;-148.88;57.55;75279.59;5055028;28;20426;-74
2022/07/04 08:37:42;;;;;;;3.42;1.30;;;;;;;-148.88;57.21;75271.50;5055083;28;20031;-73
2022/07/04 08:40:08;;;;;;;2.63;1.30;;;;;;;-148.88;57.70;75277.59;5054561;28;20471;-73
2022/07/04 08:42:38;;;;;;;3.38;1.17;;;;;;;-148.88;59.26;75273.53;5054441;28;20520;-73
2022/07/04 08:45:05;;;;;;;4.53;1.38;;;;;;;-148.88;58.59;75241.03;5054462;28;20028;-74
2022/07/04 08:47:34;;;;;;;4.05;1.38;;;;;;;-148.88;57.16;75216.66;5054718;28;20096;-74
2022/07/04 08:50:22;;;;;;;2.25;1.00;;;;;;;-148.88;54.67;75232.91;5054312;28;20424;-74
2022/07/04 08:52:53;;;;;;;3.78;1.02;;;;;;;-148.88;55.55;75234.94;5054764;28;20123;-74
2022/07/04 09:00:48;;;;;;;2.70;1.10;;;;;;;-148.88;55.39;75184.16;5054365;28;20078;-73
2022/07/04 09:03:13;;;;;;;3.45;1.10;;;;;;;-148.88;54.09;75180.09;5054154;28;20028;-74
2022/07/04 09:05:39;;;;;;;4.43;1.27;;;;;;;-148.88;55.02;75192.28;5054392;28;20548;-73
2022/07/04 09:08:05;;;;;;;2.45;1.20;;;;;;;-148.88;54.19;75178.06;5054707;28;20025;-73
2022/07/04 09:10:31;;;;;;;3.53;1.20;;;;;;;-148.88;53.57;75182.13;5036200;28;20032;-74
2022/07/04 09:12:57;;;;;;;2.30;1.00;;;;;;;-148.88;54.42;75163.84;5054132;28;20454;-74
2022/07/04 09:15:22;;;;;;;4.13;0.95;;;;;;;-148.88;55.23;75135.41;5054068;28;20025;-74
2022/07/04 09:17:48;;;;;;;2.17;0.82;;;;;;;-148.88;53.72;75165.88;5054404;28;20029;-74
2022/07/04 09:20:17;;;;;;;4.25;1.45;;;;;;;-148.88;53.46;75163.84;5054189;28;20013;-74
2022/07/04 09:22:44;;;;;;;4.28;1.00;;;;;;;-148.88;53.87;75151.66;5053961;28;20436;-74
2022/07/04 09:25:14;;;;;;;4.63;1.50;;;;;;;-148.88;52.49;75123.22;5054007;28;20025;-74
2022/07/04 09:27:44;;;;;;;2.42;1.08;;;;;;;-148.88;54.80;75121.19;5054119;28;20494;-74
2022/07/04 09:30:15;;;;;;;4.15;1.40;;;;;;;-148.88;53.59;75121.19;5036002;28;20520;-75
2022/07/04 09:32:41;;;;;;;4.05;1.08;;;;;;;-148.88;54.40;75127.28;5054524;28;20017;-74
2022/07/04 09:35:10;;;;;;;3.45;1.08;;;;;;;-148.88;51.40;75119.16;5053646;28;20545;-74
2022/07/04 09:37:49;;;;;;;3.55;1.20;;;;;;;-148.88;51.63;75106.97;5053765;28;20397;-74
2022/07/04 09:40:26;;;;;;;2.65;0.90;;;;;;;-148.88;51.31;75062.31;5053489;28;20021;-75
2022/07/04 09:42:53;;;;;;;2.30;1.00;;;;;;;-148.88;51.48;75027.78;5053631;28;20104;-79
2022/07/04 09:45:21;;;;;;;4.00;1.05;;;;;;;-148.88;51.30;75025.75;5054051;28;20409;-75
2022/07/04 09:47:47;;;;;;;2.88;0.98;;;;;;;-148.88;50.48;75029.81;5053593;28;20027;-75
2022/07/04 09:50:18;;;;;;;3.30;1.00;;;;;;;-148.88;50.31;74993.25;5053206;28;20021;-75
2022/07/04 09:52:45;;;;;;;2.60;1.00;;;;;;;-148.88;50.45;75005.44;5053487;28;20096;-74
2022/07/04 09:55:10;;;;;;;5.05;1.20;;;;;;;-148.88;51.24;75039.97;5053490;28;20140;-74
2022/07/04 09:57:36;;;;;;;3.55;1.02;;;;;;;-148.88;48.78;74974.97;5035267;28;20095;-74
2022/07/04 10:00:22;;;;;;;3.10;0.98;;;;;;;-148.88;48.66;74997.31;5053062;28;20025;-75
2022/07/04 10:02:49;;;;;;;2.42;1.00;;;;;;;-148.88;50.55;75058.25;5053196;28;20100;-74
2022/07/04 10:05:24;;;;;;;2.00;1.10;;;;;;;-148.88;51.17;75078.56;5052962;28;20123;-74
2022/07/04 10:07:49;;;;;;;3.05;0.90;;;;;;;-148.88;50.06;75007.47;5053189;28;20044;-74
2022/07/04 10:10:23;;;;;;;1.92;1.00;;;;;;;-148.88;51.96;75005.44;5052968;28;20483;-75
2022/07/04 10:12:50;;;;;;;3.50;0.90;;;;;;;-148.88;50.10;75021.69;5052766;28;20398;-75
2022/07/04 10:15:16;;;;;;;2.38;0.90;;;;;;;-148.88;50.70;75062.31;5034893;28;20048;-75
2022/07/04 10:17:41;;;;;;;3.55;1.17;;;;;;;-148.88;52.21;75100.88;5052771;28;20024;-76
2022/07/04 10:20:07;;;;;;;2.00;1.00;;;;;;;-148.88;51.27;75042.00;5034795;28;20035;-75
2022/07/04 10:22:33;;;;;;;2.20;1.02;;;;;;;-148.88;49.50;74960.75;5018325;28;20109;-74
2022/07/04 10:24:58;;;;;;;3.05;1.00;;;;;;;-148.88;49.95;74887.66;5052790;28;20025;-74
2022/07/04 10:27:24;;;;;;;2.90;1.00;;;;;;;-148.88;47.95;74881.56;5052765;28;20405;-75
2022/07/04 10:29:49;;;;;;;1.40;0.88;;;;;;;-148.88;46.77;74863.28;5052649;28;20027;-75
2022/07/04 10:32:16;;;;;;;3.28;0.80;;;;;;;-148.88;45.49;74855.16;5052671;28;20066;-75
2022/07/04 10:34:41;;;;;;;4.88;0.90;;;;;;;-148.88;47.27;74832.81;5052608;28;20486;-75
2022/07/04 10:37:07;;;;;;;3.65;1.00;;;;;;;-148.88;44.97;74778.00;5034656;28;20025;-74
2022/07/04 10:39:33;;;;;;;4.38;0.82;;;;;;;-148.88;46.39;74871.41;5052446;28;20025;-74
2022/07/04 10:41:59;;;;;;;2.08;0.90;;;;;;;-148.88;45.64;74871.41;5052418;28;20104;-75
2022/07/04 10:44:26;;;;;;;1.38;0.70;;;;;;;-148.88;47.30;74938.44;5034454;28;20052;-75
2022/07/04 10:46:56;;;;;;;2.25;1.00;;;;;;;-148.88;48.29;74974.97;5034377;28;20021;-75
2022/07/04 10:49:26;;;;;;;3.22;0.80;;;;;;;-148.88;48.16;75011.53;5034322;28;20029;-75
2022/07/04 10:51:53;;;;;;;2.72;0.77;;;;;;;-148.88;50.36;75084.66;5052132;28;20020;-74
2022/07/04 10:54:36;;;;;;;3.92;1.00;;;;;;;-148.88;48.98;74985.13;5052528;28;20134;-74
2022/07/04 10:57:24;;;;;;;1.85;0.73;;;;;;;-148.88;46.81;74895.78;5034424;28;20025;-74
2022/07/04 10:59:52;;;;;;;1.88;0.85;;;;;;;-148.88;44.74;74808.47;5052426;28;20103;-74
2022/07/04 11:02:17;;;;;;;2.25;0.90;;;;;;;-148.88;45.14;74802.38;5052342;28;20021;-75
2022/07/04 11:04:51;;;;;;;1.50;0.70;;;;;;;-148.88;44.95;74863.28;5052841;28;20032;-75
2022/07/04 11:07:37;;;;;;;2.92;0.98;;;;;;;-148.88;45.77;74818.59;5052595;28;20337;-75
2022/07/04 11:10:33;;;;;;;3.95;1.05;;;;;;;-148.88;44.26;74773.94;5041797;28;20045;-81
2022/07/04 11:12:57;;;;;;;3.28;0.85;;;;;;;-148.88;43.48;74725.19;5051639;28;20033;-76
2022/07/04 11:15:25;;;;;;;3.23;1.00;;;;;;;-148.88;41.76;74672.41;5052882;28;20512;-75
2022/07/04 11:17:51;;;;;;;1.88;0.65;;;;;;;-148.88;42.05;74715.03;5034427;28;20041;-75
2022/07/04 11:20:18;;;;;;;2.85;0.90;;;;;;;-148.88;41.88;74676.47;5052380;28;20066;-75
2022/07/04 11:22:43;;;;;;;3.10;0.80;;;;;;;-148.88;41.62;74648.03;5052504;28;20108;-75
2022/07/04 11:25:11;;;;;;;1.63;0.70;;;;;;;-148.88;42.57;74623.66;5052472;28;20111;-74